Time;durP1;ratioP1;P1;durP2;ratioP2;P2;SDS_P1;SDS_P2;PMS_P1;PMS_P2;Temp;Humidity;BMP_temperature;BMP_pressure;BME280_temperature;BME280_humidity;BME280_pressure;Samples;Min_cycle;Max_cycle;Signal;HPM_P1;HPM_P2
2021/10/26 00:00:05;;;;;;;;;;;;;;;8.94;77.17;97342.22;30001;982;1876;-65
2021/10/26 00:00:37;;;;;;;;;;;;;;;8.93;76.64;97340.59;30001;982;1881;-64
2021/10/26 00:01:08;;;;;;;;;;;;;;;8.94;76.67;97330.56;30001;982;1863;-64
2021/10/26 00:01:39;;;;;;;;;;;;;;;8.95;76.55;97345.72;30001;982;1872;-64
2021/10/26 00:02:10;;;;;;;;;;;;;;;8.95;76.85;97333.00;30001;983;1875;-64
2021/10/26 00:02:41;;;;;;;;;;;;;;;8.96;77.39;97339.25;30001;983;1867;-64
2021/10/26 00:03:14;;;;;;;;;;;;;;;8.92;78.21;97336.25;30001;983;1867;-64
2021/10/26 00:03:45;;;;;;;;;;;;;;;8.89;77.77;97333.28;30001;983;1880;-64
2021/10/26 00:04:16;;;;;;;;;;;;;;;8.88;77.41;97337.88;30001;983;1876;-64
2021/10/26 00:04:47;;;;;;;;;;;;;;;8.87;77.44;97335.44;30001;983;1839;-64
2021/10/26 00:05:17;;;;;;;;;;;;;;;8.87;77.57;97336.25;30001;983;1876;-57
2021/10/26 00:05:48;;;;;;;;;;;;;;;8.85;78.16;97341.13;30001;983;1880;-63
2021/10/26 00:06:19;;;;;;;;;;;;;;;8.85;77.46;97337.59;30001;983;1876;-65
2021/10/26 00:06:50;;;;;;;;;;;;;;;8.85;77.56;97337.59;30001;983;1881;-62
2021/10/26 00:07:20;;;;;;;;;;;;;;;8.84;77.38;97335.97;30001;982;1876;-62
2021/10/26 00:07:51;;;;;;;;;;;;;;;8.84;77.32;97335.97;30001;982;1868;-64
2021/10/26 00:08:22;;;;;;;;;;;;;;;8.84;77.36;97339.50;30001;982;1868;-62
2021/10/26 00:08:55;;;;;;;;;;;;;;;8.85;77.72;97335.72;30001;982;1868;-62
2021/10/26 00:09:25;;;;;;;;;;;;;;;8.85;78.01;97332.19;30001;982;1868;-62
2021/10/26 00:09:56;;;;;;;;;;;;;;;8.84;77.52;97336.78;30001;983;1880;-63
2021/10/26 00:10:27;;;;;;;;;;;;;;;8.86;77.58;97336.53;30001;983;1876;-63
2021/10/26 00:10:58;;;;;;;;;;;;;;;8.86;77.44;97333.81;30001;983;1880;-63
2021/10/26 00:11:29;;;;;;;;;;;;;;;8.85;77.80;97334.91;30001;983;1876;-61
2021/10/26 00:12:02;;;;;;;;;;;;;;;8.85;78.13;97332.19;30001;983;1881;-64
2021/10/26 00:12:32;;;;;;;;;;;;;;;8.85;78.20;97332.19;30001;983;1876;-64
2021/10/26 00:13:04;;;;;;;;;;;;;;;8.84;78.35;97330.56;30001;983;1880;-63
2021/10/26 00:13:34;;;;;;;;;;;;;;;8.83;78.21;97334.34;30001;983;1876;-63
2021/10/26 00:14:05;;;;;;;;;;;;;;;8.82;77.65;97330.84;30001;983;1868;-62
2021/10/26 00:14:36;;;;;;;;;;;;;;;8.82;77.27;97328.13;30001;982;1868;-64
2021/10/26 00:15:08;;;;;;;;;;;;;;;8.83;77.29;97326.25;30001;982;1881;-62
2021/10/26 00:15:38;;;;;;;;;;;;;;;8.84;77.23;97330.56;30001;982;1863;-63
2021/10/26 00:16:09;;;;;;;;;;;;;;;8.83;77.93;97329.75;30001;982;1872;-64
2021/10/26 00:16:40;;;;;;;;;;;;;;;8.83;77.51;97327.06;30001;982;1877;-63
2021/10/26 00:17:11;;;;;;;;;;;;;;;8.83;77.37;97328.94;30001;983;1880;-63
2021/10/26 00:17:42;;;;;;;;;;;;;;;8.84;77.55;97330.56;30001;983;1876;-62
2021/10/26 00:18:13;;;;;;;;;;;;;;;8.84;78.23;97327.88;30001;983;1880;-64
2021/10/26 00:18:43;;;;;;;;;;;;;;;8.84;78.12;97330.56;30001;983;1876;-62
2021/10/26 00:19:14;;;;;;;;;;;;;;;8.83;77.67;97327.06;30001;983;1880;-65
2021/10/26 00:19:45;;;;;;;;;;;;;;;8.83;77.87;97334.34;30001;983;1876;-64
2021/10/26 00:20:16;;;;;;;;;;;;;;;8.83;78.67;97328.94;30001;969;1900;-62
2021/10/26 00:20:47;;;;;;;;;;;;;;;8.84;78.27;97325.16;30001;983;1863;-60
2021/10/26 00:21:18;;;;;;;;;;;;;;;8.84;77.93;97328.69;30001;983;1803;-65
2021/10/26 00:21:48;;;;;;;;;;;;;;;8.85;78.81;97332.19;30001;983;1876;-63
2021/10/26 00:22:19;;;;;;;;;;;;;;;8.83;78.44;97323.53;30001;982;1881;-63
2021/10/26 00:22:50;;;;;;;;;;;;;;;8.82;78.80;97330.03;30001;982;1876;-63
2021/10/26 00:23:21;;;;;;;;;;;;;;;8.81;78.46;97325.69;30001;982;1761;-63
2021/10/26 00:23:52;;;;;;;;;;;;;;;8.81;78.73;97325.69;30001;982;1868;-62
2021/10/26 00:24:23;;;;;;;;;;;;;;;8.78;78.66;97323.53;30001;982;1881;-63
2021/10/26 00:24:53;;;;;;;;;;;;;;;8.79;78.37;97330.56;30001;983;1863;-63
2021/10/26 00:25:24;;;;;;;;;;;;;;;8.79;78.26;97322.44;30001;983;1871;-63
2021/10/26 00:25:55;;;;;;;;;;;;;;;8.79;78.84;97323.25;30001;964;1895;-63
2021/10/26 00:26:26;;;;;;;;;;;;;;;8.78;78.21;97326.25;30001;983;1880;-62
2021/10/26 00:26:57;;;;;;;;;;;;;;;8.79;78.28;97325.16;30001;983;1876;-63
2021/10/26 00:27:32;;;;;;;;;;;;;;;8.80;77.74;97326.78;30001;983;1880;-64
2021/10/26 00:28:03;;;;;;;;;;;;;;;8.81;78.00;97323.00;30001;983;1876;-64
2021/10/26 00:28:35;;;;;;;;;;;;;;;8.81;77.66;97331.09;30001;986;1872;-63
2021/10/26 00:29:05;;;;;;;;;;;;;;;8.83;77.95;97328.94;30001;982;1880;-63
2021/10/26 00:29:36;;;;;;;;;;;;;;;8.83;77.80;97326.25;30001;982;1877;-64
2021/10/26 00:30:08;;;;;;;;;;;;;;;8.83;77.78;97329.75;30001;982;1868;-56
2021/10/26 00:30:39;;;;;;;;;;;;;;;8.82;77.96;97332.72;30001;982;1868;-63
2021/10/26 00:31:09;;;;;;;;;;;;;;;8.82;77.75;97338.16;30001;982;1881;-63
2021/10/26 00:31:41;;;;;;;;;;;;;;;8.80;77.55;97333.00;30001;982;1876;-63
2021/10/26 00:32:12;;;;;;;;;;;;;;;8.82;77.71;97338.16;30001;983;1880;-62
2021/10/26 00:32:43;;;;;;;;;;;;;;;8.80;77.91;97335.72;30001;983;1876;-64
2021/10/26 00:33:14;;;;;;;;;;;;;;;8.80;77.80;97332.19;30001;983;1880;-62
2021/10/26 00:33:44;;;;;;;;;;;;;;;8.79;77.66;97335.97;30001;983;1876;-62
2021/10/26 00:34:15;;;;;;;;;;;;;;;8.77;78.58;97336.25;30001;983;1880;-61
2021/10/26 00:34:46;;;;;;;;;;;;;;;8.79;78.49;97335.97;30001;983;1863;-63
2021/10/26 00:35:17;;;;;;;;;;;;;;;8.79;77.96;97333.28;30001;983;1858;-62
2021/10/26 00:35:52;;;;;;;;;;;;;;;8.79;77.87;97344.09;30001;983;1876;-63
2021/10/26 00:36:22;;;;;;;;;;;;;;;8.78;77.62;97339.75;30001;982;1881;-63
2021/10/26 00:36:54;;;;;;;;;;;;;;;8.76;77.59;97340.03;30001;982;1876;-65
2021/10/26 00:37:24;;;;;;;;;;;;;;;8.78;77.83;97345.19;30001;982;1881;-62
2021/10/26 00:37:56;;;;;;;;;;;;;;;8.78;77.84;97337.06;30001;982;1876;-56
2021/10/26 00:38:27;;;;;;;;;;;;;;;8.78;78.11;97337.88;30001;982;1881;-64
2021/10/26 00:38:57;;;;;;;;;;;;;;;8.76;78.58;97341.94;30001;982;1877;-64
2021/10/26 00:39:28;;;;;;;;;;;;;;;8.76;78.73;97341.94;30001;982;1881;-63
2021/10/26 00:39:59;;;;;;;;;;;;;;;8.74;78.64;97342.19;30001;983;1876;-64
2021/10/26 00:40:30;;;;;;;;;;;;;;;8.73;79.11;97351.38;30001;983;1867;-64
2021/10/26 00:41:02;;;;;;;;;;;;;;;8.72;78.84;97338.94;30001;983;1854;-64
2021/10/26 00:41:34;;;;;;;;;;;;;;;8.70;79.33;97341.91;30001;983;1880;-63
2021/10/26 00:42:05;;;;;;;;;;;;;;;8.70;79.28;97341.09;30001;983;1876;-56
2021/10/26 00:42:36;;;;;;;;;;;;;;;8.69;79.17;97345.72;30001;983;1880;-56
2021/10/26 00:43:06;;;;;;;;;;;;;;;8.67;79.56;97345.16;30001;983;1876;-63
2021/10/26 00:43:37;;;;;;;;;;;;;;;8.68;79.72;97354.09;30001;983;1881;-63
2021/10/26 00:44:09;;;;;;;;;;;;;;;8.66;79.70;97351.66;30001;982;1876;-63
2021/10/26 00:44:40;;;;;;;;;;;;;;;8.66;79.71;97351.66;30001;982;1881;-64
2021/10/26 00:45:10;;;;;;;;;;;;;;;8.66;79.20;97354.34;30001;982;1876;-61
2021/10/26 00:45:42;;;;;;;;;;;;;;;8.66;79.08;97351.66;30001;982;1881;-61
2021/10/26 00:46:12;;;;;;;;;;;;;;;8.67;78.97;97353.28;30001;982;1863;-63
2021/10/26 00:46:43;;;;;;;;;;;;;;;8.67;78.54;97345.16;30001;982;1872;-63
2021/10/26 00:47:14;;;;;;;;;;;;;;;8.67;78.67;97347.87;30001;982;1876;-62
2021/10/26 00:47:45;;;;;;;;;;;;;;;8.69;78.87;97355.72;30001;983;1880;-56
2021/10/26 00:48:15;;;;;;;;;;;;;;;8.66;78.74;97346.25;30001;983;1876;-63
2021/10/26 00:48:46;;;;;;;;;;;;;;;8.66;79.13;97350.88;30001;983;1880;-62
2021/10/26 00:49:17;;;;;;;;;;;;;;;8.68;78.67;97354.91;30001;983;1876;-63
2021/10/26 00:49:48;;;;;;;;;;;;;;;8.69;78.52;97356.53;30001;983;1867;-63
2021/10/26 00:50:19;;;;;;;;;;;;;;;8.68;78.62;97348.69;30001;983;1867;-64
2021/10/26 00:50:50;;;;;;;;;;;;;;;8.67;78.64;97350.56;30001;983;1868;-62
2021/10/26 00:51:22;;;;;;;;;;;;;;;8.65;79.10;97355.47;30001;983;1868;-64
2021/10/26 00:51:55;;;;;;;;;;;;;;;8.64;79.02;97350.31;30001;982;1881;-63
2021/10/26 00:52:26;;;;;;;;;;;;;;;8.61;79.80;97359.78;30001;982;1876;-63
2021/10/26 00:52:58;;;;;;;;;;;;;;;8.59;79.90;97353.84;30001;982;1881;-65
2021/10/26 00:53:29;;;;;;;;;;;;;;;8.57;79.85;97353.28;30001;982;1877;-64
2021/10/26 00:54:00;;;;;;;;;;;;;;;8.57;80.00;97350.59;30001;983;1880;-63
2021/10/26 00:54:31;;;;;;;;;;;;;;;8.56;79.50;97350.84;30001;983;1876;-63
2021/10/26 00:55:02;;;;;;;;;;;;;;;8.56;79.86;97356.25;30001;983;1880;-62
2021/10/26 00:55:33;;;;;;;;;;;;;;;8.54;80.40;97353.00;30001;983;1863;-64
2021/10/26 00:56:05;;;;;;;;;;;;;;;8.53;80.46;97357.59;30001;983;1871;-63
2021/10/26 00:56:35;;;;;;;;;;;;;;;8.51;80.00;97351.66;30001;983;1876;-56
2021/10/26 00:57:06;;;;;;;;;;;;;;;8.51;80.39;97354.34;30001;983;1867;-63
2021/10/26 00:57:37;;;;;;;;;;;;;;;8.51;80.02;97348.94;30001;983;1867;-63
2021/10/26 00:58:08;;;;;;;;;;;;;;;8.50;79.94;97347.31;30001;983;1880;-63
2021/10/26 00:58:39;;;;;;;;;;;;;;;8.52;79.92;97353.28;30001;983;1876;-65
2021/10/26 00:59:10;;;;;;;;;;;;;;;8.52;79.33;97347.87;30001;982;1881;-63
2021/10/26 00:59:41;;;;;;;;;;;;;;;8.53;79.34;97349.50;30001;982;1876;-62
2021/10/26 01:00:12;;;;;;;;;;;;;;;8.53;79.56;97346.78;30001;982;1881;-63
2021/10/26 01:00:44;;;;;;;;;;;;;;;8.54;79.51;97340.28;30001;982;1877;-63
2021/10/26 01:01:15;;;;;;;;;;;;;;;8.55;79.15;97344.62;30001;982;1881;-64
2021/10/26 01:01:46;;;;;;;;;;;;;;;8.56;79.26;97343.56;30001;983;1876;-64
2021/10/26 01:02:17;;;;;;;;;;;;;;;8.57;79.13;97342.47;30001;983;1867;-63
2021/10/26 01:02:48;;;;;;;;;;;;;;;8.57;79.29;97337.06;30001;983;1867;-56
2021/10/26 01:03:18;;;;;;;;;;;;;;;8.58;79.59;97338.69;30001;983;1880;-64
2021/10/26 01:03:51;;;;;;;;;;;;;;;8.58;79.39;97337.88;30001;983;1876;-64
2021/10/26 01:04:22;;;;;;;;;;;;;;;8.59;79.26;97334.91;30001;983;1880;-64
2021/10/26 01:04:52;;;;;;;;;;;;;;;8.60;79.16;97347.34;30001;983;1876;-64
2021/10/26 01:05:24;;;;;;;;;;;;;;;8.61;79.44;97345.44;30001;983;1880;-62
2021/10/26 01:05:55;;;;;;;;;;;;;;;8.62;78.98;97339.78;30001;983;1876;-64
2021/10/26 01:06:25;;;;;;;;;;;;;;;8.63;78.87;97338.69;30001;983;1867;-64
2021/10/26 01:06:57;;;;;;;;;;;;;;;8.64;78.92;97344.91;30001;982;1868;-63
2021/10/26 01:07:27;;;;;;;;;;;;;;;8.65;79.27;97344.66;30001;982;1881;-64
2021/10/26 01:07:58;;;;;;;;;;;;;;;8.67;78.92;97344.34;30001;982;1863;-64
2021/10/26 01:08:31;;;;;;;;;;;;;;;8.67;79.14;97347.87;30001;982;1872;-64
2021/10/26 01:09:03;;;;;;;;;;;;;;;8.67;79.06;97347.87;30001;982;1877;-63
2021/10/26 01:09:33;;;;;;;;;;;;;;;8.69;79.15;97351.13;30001;983;1880;-64
2021/10/26 01:10:06;;;;;;;;;;;;;;;8.70;79.10;97341.91;30001;983;1876;-65
2021/10/26 01:10:37;;;;;;;;;;;;;;;8.72;79.54;97345.16;30001;983;1880;-65
2021/10/26 01:11:08;;;;;;;;;;;;;;;8.72;79.46;97345.16;30001;983;1876;-63
2021/10/26 01:11:39;;;;;;;;;;;;;;;8.73;78.92;97351.38;30001;983;1881;-57
2021/10/26 01:12:10;;;;;;;;;;;;;;;8.75;78.74;97346.53;30001;983;1876;-64
2021/10/26 01:12:41;;;;;;;;;;;;;;;8.78;79.04;97347.87;30001;983;1880;-56
2021/10/26 01:13:12;;;;;;;;;;;;;;;8.78;78.66;97347.87;30001;983;1863;-65
2021/10/26 01:13:43;;;;;;;;;;;;;;;8.80;78.78;97353.84;30001;983;1872;-63
2021/10/26 01:14:15;;;;;;;;;;;;;;;8.80;78.70;97345.72;30001;982;1877;-64
2021/10/26 01:14:46;;;;;;;;;;;;;;;8.81;79.01;97344.62;30001;982;1881;-65
2021/10/26 01:15:17;;;;;;;;;;;;;;;8.81;79.41;97347.34;30001;982;1876;-56
2021/10/26 01:15:48;;;;;;;;;;;;;;;8.81;79.03;97344.62;30001;982;1881;-62
2021/10/26 01:16:18;;;;;;;;;;;;;;;8.81;78.63;97339.22;30001;982;1877;-64
2021/10/26 01:16:49;;;;;;;;;;;;;;;8.82;78.75;97346.25;30001;983;1880;-55
2021/10/26 01:17:20;;;;;;;;;;;;;;;8.82;79.14;97343.56;30001;983;1876;-63
2021/10/26 01:17:52;;;;;;;;;;;;;;;8.81;79.52;97342.75;30001;983;1880;-56
2021/10/26 01:18:24;;;;;;;;;;;;;;;8.81;79.18;97341.94;30001;983;1863;-65
2021/10/26 01:18:55;;;;;;;;;;;;;;;8.82;78.82;97343.56;30001;983;1872;-63
2021/10/26 01:19:25;;;;;;;;;;;;;;;8.82;78.87;97343.56;30001;983;1876;-65
2021/10/26 01:19:57;;;;;;;;;;;;;;;8.83;79.41;97345.19;30001;983;1880;-64
2021/10/26 01:20:27;;;;;;;;;;;;;;;8.82;79.66;97344.38;30001;983;1788;-63
2021/10/26 01:20:58;;;;;;;;;;;;;;;8.83;79.11;97350.59;30001;982;1881;-63
2021/10/26 01:21:30;;;;;;;;;;;;;;;8.84;79.08;97352.22;30001;982;1876;-63
2021/10/26 01:22:01;;;;;;;;;;;;;;;8.83;79.01;97351.41;30001;982;1881;-65
2021/10/26 01:22:38;;;;;;;;;;;;;;;8.84;79.05;97352.22;30001;982;1877;-63
2021/10/26 01:23:09;;;;;;;;;;;;;;;8.84;78.75;97349.50;30001;982;1868;-65
2021/10/26 01:23:40;;;;;;;;;;;;;;;8.85;78.88;97349.25;30001;982;1868;-69
2021/10/26 01:24:11;;;;;;;;;;;;;;;8.89;78.95;97355.75;30001;983;1880;-63
2021/10/26 01:24:42;;;;;;;;;;;;;;;8.89;78.49;97350.34;30001;983;1876;-65
2021/10/26 01:25:14;;;;;;;;;;;;;;;8.90;78.58;97351.13;30001;983;1880;-64
2021/10/26 01:25:45;;;;;;;;;;;;;;;8.90;78.61;97351.13;30001;983;1876;-63
2021/10/26 01:26:16;;;;;;;;;;;;;;;8.90;78.62;97351.13;30001;983;1880;-65
2021/10/26 01:26:47;;;;;;;;;;;;;;;8.91;78.33;97358.19;30001;983;1876;-55
2021/10/26 01:27:18;;;;;;;;;;;;;;;8.90;79.11;97351.13;30001;983;1880;-65
2021/10/26 01:27:53;;;;;;;;;;;;;;;8.90;78.73;97356.56;30001;983;1876;-65
2021/10/26 01:28:24;;;;;;;;;;;;;;;8.91;78.70;97353.56;30001;982;1868;-65
2021/10/26 01:28:55;;;;;;;;;;;;;;;8.92;78.59;97354.38;30001;982;1854;-64
2021/10/26 01:29:26;;;;;;;;;;;;;;;8.92;78.61;97354.38;30001;982;1881;-64
2021/10/26 01:29:56;;;;;;;;;;;;;;;8.92;78.55;97354.38;30001;982;1876;-64
2021/10/26 01:30:32;;;;;;;;;;;;;;;8.92;78.40;97359.81;30001;982;1881;-63
2021/10/26 01:31:03;;;;;;;;;;;;;;;8.92;78.67;97355.19;30001;982;1877;-63
2021/10/26 01:31:34;;;;;;;;;;;;;;;8.93;79.06;97356.00;30001;982;1881;-65
2021/10/26 01:32:06;;;;;;;;;;;;;;;8.92;78.79;97354.38;30001;983;1876;-64
2021/10/26 01:32:37;;;;;;;;;;;;;;;8.93;78.64;97358.72;30001;983;1867;-62
2021/10/26 01:33:08;;;;;;;;;;;;;;;8.93;78.68;97356.81;30001;983;1867;-62
2021/10/26 01:33:39;;;;;;;;;;;;;;;8.94;79.49;97361.16;30001;983;1880;-64
2021/10/26 01:34:10;;;;;;;;;;;;;;;8.94;79.63;97357.63;30001;983;1876;-63
2021/10/26 01:34:41;;;;;;;;;;;;;;;8.93;79.36;97362.25;30001;983;1880;-65
2021/10/26 01:35:12;;;;;;;;;;;;;;;8.94;79.13;97358.44;30001;983;1876;-67
2021/10/26 01:35:43;;;;;;;;;;;;;;;8.95;78.85;97353.84;30001;983;1867;-64
2021/10/26 01:36:16;;;;;;;;;;;;;;;8.98;78.93;97361.44;30001;982;1868;-64
2021/10/26 01:36:49;;;;;;;;;;;;;;;8.97;79.11;97354.41;30001;982;1881;-64
2021/10/26 01:37:19;;;;;;;;;;;;;;;8.97;79.90;97359.81;30001;982;1863;-65
2021/10/26 01:37:50;;;;;;;;;;;;;;;8.96;80.08;97363.59;30001;982;1872;-65
2021/10/26 01:38:25;;;;;;;;;;;;;;;8.95;79.93;97364.69;30001;982;1863;-65
2021/10/26 01:38:56;;;;;;;;;;;;;;;8.94;80.00;97358.44;30001;983;1871;-63
2021/10/26 01:39:27;;;;;;;;;;;;;;;8.94;79.53;97363.87;30001;983;1876;-64
2021/10/26 01:39:58;;;;;;;;;;;;;;;8.94;79.93;97354.94;30001;983;1880;-64
2021/10/26 01:40:30;;;;;;;;;;;;;;;8.94;80.03;97355.75;30001;983;1876;-65
2021/10/26 01:41:00;;;;;;;;;;;;;;;8.94;79.99;97354.94;30001;983;1880;-64
2021/10/26 01:41:31;;;;;;;;;;;;;;;8.94;80.00;97357.63;30001;983;1863;-65
2021/10/26 01:42:04;;;;;;;;;;;;;;;8.93;79.96;97356.00;30001;983;1871;-64
2021/10/26 01:42:35;;;;;;;;;;;;;;;8.92;79.84;97359.81;30001;983;1876;-65
2021/10/26 01:43:06;;;;;;;;;;;;;;;8.92;80.18;97359.81;30001;983;1881;-63
2021/10/26 01:43:37;;;;;;;;;;;;;;;8.91;79.78;97352.75;30001;982;1876;-64
2021/10/26 01:44:08;;;;;;;;;;;;;;;8.91;79.58;97352.75;30001;982;1881;-64
2021/10/26 01:44:39;;;;;;;;;;;;;;;8.91;79.85;97358.19;30001;982;1876;-63
2021/10/26 01:45:11;;;;;;;;;;;;;;;8.91;80.01;97358.19;30001;982;1881;-65
2021/10/26 01:45:42;;;;;;;;;;;;;;;8.91;79.98;97360.88;30001;982;1864;-64
2021/10/26 01:46:13;;;;;;;;;;;;;;;8.92;79.88;97359.81;30001;983;1871;-64
2021/10/26 01:46:44;;;;;;;;;;;;;;;8.92;79.72;97365.22;30001;983;1876;-64
2021/10/26 01:47:14;;;;;;;;;;;;;;;8.93;79.86;97366.84;30001;983;1880;-64
2021/10/26 01:47:48;;;;;;;;;;;;;;;8.92;79.57;97359.81;30001;983;1876;-64
2021/10/26 01:48:20;;;;;;;;;;;;;;;8.94;79.92;97368.47;30001;983;1881;-65
2021/10/26 01:48:50;;;;;;;;;;;;;;;8.94;79.87;97368.47;30001;983;1863;-64
2021/10/26 01:49:22;;;;;;;;;;;;;;;8.93;79.97;97366.84;30001;983;1872;-64
2021/10/26 01:49:53;;;;;;;;;;;;;;;8.93;79.77;97361.44;30001;983;1876;-64
2021/10/26 01:50:24;;;;;;;;;;;;;;;8.94;79.92;97373.88;30001;982;1881;-65
2021/10/26 01:50:58;;;;;;;;;;;;;;;8.93;79.57;97369.56;30001;964;1894;-65
2021/10/26 01:51:28;;;;;;;;;;;;;;;8.94;79.71;97373.88;30001;982;1881;-66
2021/10/26 01:51:59;;;;;;;;;;;;;;;8.93;79.49;97372.25;30001;982;1877;-63
2021/10/26 01:52:31;;;;;;;;;;;;;;;8.94;79.48;97368.47;30001;982;1868;-65
2021/10/26 01:53:01;;;;;;;;;;;;;;;8.95;79.46;97372.78;30001;982;1868;-64
2021/10/26 01:53:32;;;;;;;;;;;;;;;8.95;79.56;97370.09;30001;983;1867;-65
2021/10/26 01:54:03;;;;;;;;;;;;;;;8.96;79.37;97371.72;30001;983;1867;-64
2021/10/26 01:54:38;;;;;;;;;;;;;;;8.97;79.25;97367.94;30001;983;1867;-65
2021/10/26 01:55:10;;;;;;;;;;;;;;;8.97;79.12;97373.34;30001;983;1867;-55
2021/10/26 01:55:40;;;;;;;;;;;;;;;8.98;79.29;97369.56;30001;983;1881;-65
2021/10/26 01:56:11;;;;;;;;;;;;;;;8.98;78.95;97372.25;30001;983;1876;-63
2021/10/26 01:56:43;;;;;;;;;;;;;;;8.99;78.99;97376.59;30001;983;1880;-65
2021/10/26 01:57:18;;;;;;;;;;;;;;;8.97;79.70;97374.16;30001;983;1863;-63
2021/10/26 01:57:51;;;;;;;;;;;;;;;8.97;80.29;97370.63;30001;982;1872;-64
2021/10/26 01:58:22;;;;;;;;;;;;;;;8.97;80.18;97370.63;30001;982;1876;-63
2021/10/26 01:58:53;;;;;;;;;;;;;;;8.96;80.98;97377.13;30001;982;1881;-63
2021/10/26 01:59:24;;;;;;;;;;;;;;;8.94;80.62;97380.09;30001;982;1877;-64
2021/10/26 01:59:56;;;;;;;;;;;;;;;8.94;80.23;97376.59;30001;982;1881;-65
2021/10/26 02:00:26;;;;;;;;;;;;;;;8.94;79.89;97371.16;30001;982;1877;-63
2021/10/26 02:00:57;;;;;;;;;;;;;;;8.94;80.00;97376.59;30001;982;1881;-65
2021/10/26 02:01:28;;;;;;;;;;;;;;;8.94;80.11;97374.69;30001;983;1863;-63
2021/10/26 02:01:59;;;;;;;;;;;;;;;8.94;80.76;97373.88;30001;983;1871;-66
2021/10/26 02:02:30;;;;;;;;;;;;;;;8.93;80.37;97378.47;30001;983;1876;-63
2021/10/26 02:03:01;;;;;;;;;;;;;;;8.94;80.38;97376.59;30001;983;1880;-63
2021/10/26 02:03:32;;;;;;;;;;;;;;;8.92;80.37;97367.94;30001;983;1876;-63
2021/10/26 02:04:05;;;;;;;;;;;;;;;8.93;80.24;97374.97;30001;983;1880;-62
2021/10/26 02:04:36;;;;;;;;;;;;;;;8.93;80.09;97374.97;30001;983;1876;-65
2021/10/26 02:05:07;;;;;;;;;;;;;;;8.94;80.55;97373.88;30001;974;1898;-65
2021/10/26 02:05:38;;;;;;;;;;;;;;;8.94;80.17;97365.75;30001;982;1876;-66
2021/10/26 02:06:09;;;;;;;;;;;;;;;8.93;80.42;97378.47;30001;982;1881;-65
2021/10/26 02:06:39;;;;;;;;;;;;;;;8.94;80.59;97376.59;30001;982;1863;-66
2021/10/26 02:07:11;;;;;;;;;;;;;;;8.94;80.72;97371.97;30001;982;1872;-65
2021/10/26 02:07:43;;;;;;;;;;;;;;;8.94;80.51;97373.88;30001;982;1877;-65
2021/10/26 02:08:13;;;;;;;;;;;;;;;8.94;80.56;97374.69;30001;982;1881;-64
2021/10/26 02:08:44;;;;;;;;;;;;;;;8.95;80.46;97372.78;30001;983;1876;-64
2021/10/26 02:09:15;;;;;;;;;;;;;;;8.93;81.90;97373.06;30001;983;1880;-65
2021/10/26 02:09:46;;;;;;;;;;;;;;;8.92;80.74;97373.34;30001;983;1839;-64
2021/10/26 02:10:18;;;;;;;;;;;;;;;8.92;81.11;97370.63;30001;983;1880;-64
2021/10/26 02:10:48;;;;;;;;;;;;;;;8.91;81.28;97375.22;30001;983;1863;-66
2021/10/26 02:11:19;;;;;;;;;;;;;;;8.92;81.41;97382.28;30001;983;1872;-68
2021/10/26 02:11:50;;;;;;;;;;;;;;;8.96;81.28;97371.72;30001;983;1876;-56
2021/10/26 02:12:22;;;;;;;;;;;;;;;8.97;81.01;97378.75;30001;983;1881;-66
2021/10/26 02:12:53;;;;;;;;;;;;;;;8.96;80.86;97375.22;30001;982;1876;-66
2021/10/26 02:13:24;;;;;;;;;;;;;;;8.97;81.16;97373.34;30001;982;1868;-66
2021/10/26 02:13:55;;;;;;;;;;;;;;;8.96;80.96;97374.41;30001;982;1868;-66
2021/10/26 02:14:25;;;;;;;;;;;;;;;8.95;81.22;97375.50;30001;982;1881;-66
2021/10/26 02:14:56;;;;;;;;;;;;;;;8.91;81.30;97374.41;30001;982;1877;-66
2021/10/26 02:15:27;;;;;;;;;;;;;;;8.90;81.27;97372.78;30001;982;1881;-66
2021/10/26 02:15:58;;;;;;;;;;;;;;;8.87;81.53;97374.13;30001;982;1877;-66
2021/10/26 02:16:29;;;;;;;;;;;;;;;8.85;81.84;97370.87;30001;983;1867;-66
2021/10/26 02:17:01;;;;;;;;;;;;;;;8.81;82.23;97372.50;30001;983;1867;-67
2021/10/26 02:17:32;;;;;;;;;;;;;;;8.80;82.56;97372.78;30001;983;1880;-66
2021/10/26 02:18:03;;;;;;;;;;;;;;;8.77;82.78;97381.44;30001;983;1876;-66
2021/10/26 02:18:34;;;;;;;;;;;;;;;8.76;82.98;97387.91;30001;983;1867;-67
2021/10/26 02:19:05;;;;;;;;;;;;;;;8.74;82.64;97380.88;30001;983;1867;-68
2021/10/26 02:19:36;;;;;;;;;;;;;;;8.76;82.46;97387.91;30001;983;1881;-66
2021/10/26 02:20:07;;;;;;;;;;;;;;;8.74;82.39;97383.59;30001;976;1883;-66
2021/10/26 02:20:38;;;;;;;;;;;;;;;8.74;82.95;97383.59;30001;982;1881;-67
2021/10/26 02:21:10;;;;;;;;;;;;;;;8.72;82.79;97385.75;30001;982;1876;-66
2021/10/26 02:21:41;;;;;;;;;;;;;;;8.71;82.96;97386.84;30001;982;1881;-65
2021/10/26 02:22:12;;;;;;;;;;;;;;;8.69;83.47;97386.28;30001;982;1863;-67
2021/10/26 02:22:42;;;;;;;;;;;;;;;8.67;84.00;97380.31;30001;982;1872;-67
2021/10/26 02:23:13;;;;;;;;;;;;;;;8.67;84.19;97385.75;30001;983;1876;-66
2021/10/26 02:23:44;;;;;;;;;;;;;;;8.66;84.37;97388.75;30001;983;1880;-68
2021/10/26 02:24:15;;;;;;;;;;;;;;;8.64;84.31;97386.31;30001;983;1863;-66
2021/10/26 02:24:46;;;;;;;;;;;;;;;8.64;84.17;97385.50;30001;983;1871;-67
2021/10/26 02:25:16;;;;;;;;;;;;;;;8.63;84.00;97386.56;30001;983;1876;-67
2021/10/26 02:25:47;;;;;;;;;;;;;;;8.63;84.39;97390.09;30001;983;1879;-66
2021/10/26 02:26:18;;;;;;;;;;;;;;;8.62;83.92;97387.66;30001;983;1876;-66
2021/10/26 02:26:50;;;;;;;;;;;;;;;8.61;84.14;97391.44;30001;983;1880;-66
2021/10/26 02:27:20;;;;;;;;;;;;;;;8.60;84.14;97387.91;30001;983;1876;-67
2021/10/26 02:27:51;;;;;;;;;;;;;;;8.59;84.53;97382.78;30001;973;1891;-67
2021/10/26 02:28:22;;;;;;;;;;;;;;;8.59;84.69;97388.19;30001;982;1863;-67
2021/10/26 02:28:53;;;;;;;;;;;;;;;8.58;84.76;97390.06;30001;982;1872;-66
2021/10/26 02:29:23;;;;;;;;;;;;;;;8.57;85.09;97393.84;30001;982;1876;-68
2021/10/26 02:29:54;;;;;;;;;;;;;;;8.56;85.63;97389.53;30001;982;1881;-67
2021/10/26 02:30:25;;;;;;;;;;;;;;;8.54;85.55;97386.28;30001;983;1876;-67
2021/10/26 02:30:56;;;;;;;;;;;;;;;8.52;86.32;97391.12;30001;983;1880;-67
2021/10/26 02:31:27;;;;;;;;;;;;;;;8.51;86.59;97388.69;30001;983;1876;-66
2021/10/26 02:31:58;;;;;;;;;;;;;;;8.50;85.92;97390.59;30001;983;1880;-66
2021/10/26 02:32:29;;;;;;;;;;;;;;;8.50;86.02;97389.78;30001;983;1876;-67
2021/10/26 02:33:00;;;;;;;;;;;;;;;8.50;86.31;97390.59;30001;983;1880;-67
2021/10/26 02:33:30;;;;;;;;;;;;;;;8.49;86.39;97394.37;30001;983;1863;-66
2021/10/26 02:34:01;;;;;;;;;;;;;;;8.48;87.09;97387.34;30001;983;1872;-66
2021/10/26 02:34:33;;;;;;;;;;;;;;;8.47;87.40;97385.72;30001;983;1876;-67
2021/10/26 02:35:04;;;;;;;;;;;;;;;8.46;87.18;97386.78;30001;983;1881;-67
2021/10/26 02:35:35;;;;;;;;;;;;;;;8.44;86.77;97383.53;30001;982;1876;-66
2021/10/26 02:36:06;;;;;;;;;;;;;;;8.43;86.23;97379.22;30001;982;1867;-67
2021/10/26 02:36:37;;;;;;;;;;;;;;;8.43;86.05;97379.22;30001;982;1867;-67
2021/10/26 02:37:07;;;;;;;;;;;;;;;8.46;86.65;97384.09;30001;982;1881;-67
2021/10/26 02:37:38;;;;;;;;;;;;;;;8.48;86.78;97387.34;30001;982;1863;-66
2021/10/26 02:38:09;;;;;;;;;;;;;;;8.47;86.48;97380.31;30001;963;1891;-65
2021/10/26 02:38:40;;;;;;;;;;;;;;;8.47;86.49;97374.91;30001;983;1876;-66
2021/10/26 02:39:12;;;;;;;;;;;;;;;8.48;86.62;97378.41;30001;983;1880;-65
2021/10/26 02:39:42;;;;;;;;;;;;;;;8.46;86.87;97377.88;30001;983;1876;-67
2021/10/26 02:40:13;;;;;;;;;;;;;;;8.46;87.36;97383.28;30001;983;1880;-65
2021/10/26 02:40:44;;;;;;;;;;;;;;;8.45;87.45;97379.75;30001;983;1876;-67
2021/10/26 02:41:15;;;;;;;;;;;;;;;8.44;87.58;97380.84;30001;983;1880;-66
2021/10/26 02:41:45;;;;;;;;;;;;;;;8.42;88.29;97380.28;30001;983;1876;-65
2021/10/26 02:42:16;;;;;;;;;;;;;;;8.40;88.20;97382.44;30001;983;1843;-67
2021/10/26 02:42:47;;;;;;;;;;;;;;;8.39;87.70;97378.13;30001;983;1854;-66
2021/10/26 02:43:18;;;;;;;;;;;;;;;8.39;87.86;97388.94;30001;982;1872;-67
2021/10/26 02:43:49;;;;;;;;;;;;;;;8.40;88.15;97387.84;30001;982;1859;-66
2021/10/26 02:44:20;;;;;;;;;;;;;;;8.39;88.33;97386.22;30001;982;1885;-67
2021/10/26 02:44:51;;;;;;;;;;;;;;;8.37;88.85;97386.50;30001;982;1881;-66
2021/10/26 02:45:27;;;;;;;;;;;;;;;8.38;89.17;97384.59;30001;982;1885;-67
2021/10/26 02:46:00;;;;;;;;;;;;;;;8.35;89.25;97383.25;30001;983;1880;-66
2021/10/26 02:46:34;;;;;;;;;;;;;;;8.34;88.93;97387.03;30001;983;1885;-67
2021/10/26 02:47:05;;;;;;;;;;;;;;;8.34;88.09;97391.63;30001;983;1880;-66
2021/10/26 02:47:37;;;;;;;;;;;;;;;8.35;88.02;97393.25;30001;983;1885;-66
2021/10/26 02:48:08;;;;;;;;;;;;;;;8.35;88.23;97382.44;30001;983;1867;-55
2021/10/26 02:48:42;;;;;;;;;;;;;;;8.35;88.64;97385.13;30001;983;1876;-66